createdAt,value
2023-02-03T00:01:47.138Z,3.00
2023-02-03T00:04:13.603Z,2.80
2023-02-03T00:06:42.280Z,3.05
2023-02-03T00:09:09.855Z,2.40
2023-02-03T00:11:36.697Z,2.97
2023-02-03T00:14:05.387Z,2.83
2023-02-03T00:16:31.900Z,3.22
2023-02-03T00:18:58.666Z,2.85
2023-02-03T00:21:25.780Z,3.13
2023-02-03T00:23:57.087Z,3.40
2023-02-03T00:26:26.107Z,3.22
2023-02-03T00:28:52.964Z,2.75
2023-02-03T00:31:20.913Z,2.72
2023-02-03T00:33:48.273Z,2.88
2023-02-03T00:36:14.889Z,2.75
2023-02-03T00:38:41.954Z,2.75
2023-02-03T00:41:08.717Z,3.08
2023-02-03T00:43:54.709Z,2.88
2023-02-03T00:46:21.504Z,2.25
2023-02-03T00:48:48.583Z,3.15
2023-02-03T00:51:15.577Z,2.63
2023-02-03T00:53:42.076Z,2.75
2023-02-03T00:56:12.886Z,2.90
2023-02-03T01:01:07.357Z,2.67
2023-02-03T01:03:34.879Z,2.35
2023-02-03T01:06:13.704Z,2.78
2023-02-03T01:08:40.611Z,2.50
2023-02-03T01:11:12.274Z,2.42
2023-02-03T01:13:39.421Z,2.75
2023-02-03T01:16:10.172Z,3.15
2023-02-03T01:18:39.339Z,3.08
2023-02-03T01:21:09.804Z,2.80
2023-02-03T01:23:36.836Z,2.60
2023-02-03T01:26:08.561Z,3.20
2023-02-03T01:28:35.364Z,2.75
2023-02-03T01:31:12.853Z,2.80
2023-02-03T01:33:46.437Z,3.42
2023-02-03T01:36:13.196Z,2.65
2023-02-03T01:38:39.818Z,2.78
2023-02-03T01:41:07.338Z,2.65
2023-02-03T01:43:35.333Z,2.70
2023-02-03T01:46:16.312Z,2.33
2023-02-03T01:48:43.479Z,2.17
2023-02-03T01:51:10.218Z,2.50
2023-02-03T01:53:39.540Z,2.50
2023-02-03T01:56:07.879Z,2.20
2023-02-03T01:58:37.754Z,2.33
2023-02-03T02:01:04.246Z,2.42
2023-02-03T02:03:50.767Z,1.95
2023-02-03T02:06:17.176Z,2.28
2023-02-03T02:08:46.131Z,2.55
2023-02-03T02:11:12.659Z,2.00
2023-02-03T02:13:40.002Z,1.88
2023-02-03T02:16:10.016Z,2.30
2023-02-03T02:18:48.724Z,1.67
2023-02-03T02:21:24.022Z,1.70
2023-02-03T02:24:08.728Z,2.03
2023-02-03T02:26:48.327Z,2.15
2023-02-03T02:29:34.918Z,2.75
2023-02-03T02:32:04.105Z,1.95
2023-02-03T02:34:49.116Z,1.60
2023-02-03T02:37:15.457Z,2.00
2023-02-03T02:39:47.901Z,1.98
2023-02-03T02:42:17.514Z,1.83
2023-02-03T02:44:56.290Z,1.88
2023-02-03T02:47:23.550Z,1.90
2023-02-03T02:49:54.344Z,1.73
2023-02-03T02:52:21.718Z,1.65
2023-02-03T02:54:51.327Z,1.42
2023-02-03T02:57:18.663Z,1.90
2023-02-03T02:59:45.512Z,1.70
2023-02-03T03:02:12.005Z,1.85
2023-02-03T03:04:38.625Z,1.33
2023-02-03T03:07:08.372Z,2.17
2023-02-03T03:09:51.791Z,1.52
2023-02-03T03:12:21.565Z,1.30
2023-02-03T03:14:54.366Z,1.88
2023-02-03T03:17:26.456Z,1.67
2023-02-03T03:19:54.790Z,1.33
2023-02-03T03:22:23.673Z,1.55
2023-02-03T03:24:52.582Z,2.00
2023-02-03T03:27:29.110Z,1.55
2023-02-03T03:30:00.899Z,1.60
2023-02-03T03:32:28.150Z,1.70
2023-02-03T03:34:55.410Z,2.17
2023-02-03T03:37:28.915Z,1.73
2023-02-03T03:39:57.505Z,1.73
2023-02-03T03:42:46.346Z,1.88
2023-02-03T03:45:15.429Z,1.80
2023-02-03T03:47:48.328Z,1.85
2023-02-03T03:50:18.230Z,1.50
2023-02-03T03:52:45.629Z,1.27
2023-02-03T03:55:12.964Z,2.13
2023-02-03T03:57:41.472Z,1.48
2023-02-03T04:00:11.394Z,1.67
2023-02-03T04:02:39.296Z,1.80
2023-02-03T04:05:06.562Z,2.08
2023-02-03T04:07:42.956Z,2.08
2023-02-03T04:10:19.568Z,1.75
2023-02-03T04:12:45.866Z,1.83
2023-02-03T04:15:12.154Z,2.30
2023-02-03T04:17:38.502Z,1.35
2023-02-03T04:20:06.870Z,1.67
2023-02-03T04:22:33.361Z,1.73
2023-02-03T04:24:59.792Z,1.20
2023-02-03T04:27:28.934Z,1.80
2023-02-03T04:29:55.255Z,1.85
2023-02-03T04:32:21.618Z,1.30
2023-02-03T04:34:47.990Z,1.48
2023-02-03T04:37:14.472Z,1.50
2023-02-03T04:39:41.331Z,1.33
2023-02-03T04:42:07.625Z,1.20
2023-02-03T04:44:33.965Z,1.35
2023-02-03T04:47:00.357Z,1.30
2023-02-03T04:49:26.671Z,1.15
2023-02-03T04:51:52.996Z,1.67
2023-02-03T04:54:19.317Z,1.23
2023-02-03T04:56:45.945Z,1.20
2023-02-03T04:59:12.323Z,1.63
2023-02-03T05:01:38.677Z,1.52
2023-02-03T05:04:05.004Z,1.35
2023-02-03T05:06:32.840Z,1.30
2023-02-03T05:09:02.204Z,1.35
2023-02-03T05:11:28.696Z,1.60
2023-02-03T05:13:55.046Z,1.60
2023-02-03T05:16:21.510Z,1.70
2023-02-03T05:18:47.918Z,1.73
2023-02-03T05:21:14.672Z,1.63
2023-02-03T05:23:41.402Z,2.28
2023-02-03T05:26:08.278Z,1.38
2023-02-03T05:28:36.074Z,1.75
2023-02-03T05:31:02.796Z,1.33
2023-02-03T05:33:29.646Z,2.05
2023-02-03T05:35:56.030Z,1.40
2023-02-03T05:38:22.591Z,1.70
2023-02-03T05:41:07.657Z,1.88
2023-02-03T05:43:35.381Z,1.77
2023-02-03T05:46:05.640Z,1.42
2023-02-03T05:48:32.507Z,1.25
2023-02-03T05:50:58.857Z,1.40
2023-02-03T05:53:26.114Z,1.45
2023-02-03T05:55:52.529Z,1.35
2023-02-03T05:58:18.963Z,1.20
2023-02-03T06:00:45.552Z,1.13
2023-02-03T06:03:11.925Z,1.15
2023-02-03T06:05:40.929Z,1.50
2023-02-03T06:08:07.947Z,1.33
2023-02-03T06:10:34.515Z,1.55
2023-02-03T06:13:07.571Z,1.60
2023-02-03T06:15:33.854Z,1.65
2023-02-03T06:18:02.443Z,1.65
2023-02-03T06:20:30.840Z,1.80
2023-02-03T06:22:57.213Z,1.63
2023-02-03T06:25:24.307Z,1.60
2023-02-03T06:27:51.131Z,2.00
2023-02-03T06:30:17.599Z,1.60
2023-02-03T06:32:44.023Z,1.58
2023-02-03T06:35:10.433Z,1.50
2023-02-03T06:37:37.554Z,1.88
2023-02-03T06:40:04.438Z,1.65
2023-02-03T06:42:30.921Z,1.90
2023-02-03T06:44:57.198Z,1.35
2023-02-03T06:47:23.741Z,1.50
2023-02-03T06:49:50.144Z,1.45
2023-02-03T06:52:16.435Z,1.73
2023-02-03T06:54:42.798Z,2.03
2023-02-03T06:57:09.174Z,1.90
2023-02-03T06:59:35.505Z,1.75
2023-02-03T07:02:01.851Z,1.60
2023-02-03T07:04:30.100Z,1.80
2023-02-03T07:06:57.605Z,1.33
2023-02-03T07:09:23.956Z,1.90
2023-02-03T07:11:50.268Z,1.33
2023-02-03T07:14:19.466Z,1.23
2023-02-03T07:16:45.775Z,1.60
2023-02-03T07:19:12.217Z,2.03
2023-02-03T07:21:38.526Z,1.95
2023-02-03T07:24:05.067Z,1.63
2023-02-03T07:26:31.424Z,2.20
2023-02-03T07:29:00.030Z,1.80
2023-02-03T07:31:27.498Z,2.05
2023-02-03T07:33:53.897Z,1.98
2023-02-03T07:36:20.275Z,1.50
2023-02-03T07:38:46.599Z,1.40
2023-02-03T07:41:13.035Z,1.60
2023-02-03T07:43:39.382Z,1.70
2023-02-03T07:46:05.820Z,1.83
2023-02-03T07:48:32.284Z,1.75
2023-02-03T07:50:58.779Z,2.00
2023-02-03T07:53:25.059Z,1.75
2023-02-03T07:55:51.441Z,2.08
2023-02-03T07:58:17.788Z,1.83
2023-02-03T08:00:44.137Z,1.70
2023-02-03T08:03:10.445Z,1.83
2023-02-03T08:05:36.761Z,1.55
2023-02-03T08:08:03.095Z,1.77
2023-02-03T08:10:29.819Z,1.90
2023-02-03T08:12:56.511Z,1.80
2023-02-03T08:15:22.851Z,1.60
2023-02-03T08:17:49.750Z,1.85
2023-02-03T08:20:16.643Z,2.97
2023-02-03T08:22:43.016Z,1.48
2023-02-03T08:25:09.956Z,2.00
2023-02-03T08:27:36.423Z,1.60
2023-02-03T08:30:03.470Z,2.35
2023-02-03T08:32:29.878Z,1.80
2023-02-03T08:34:56.207Z,2.03
2023-02-03T08:37:24.358Z,1.90
2023-02-03T08:39:51.223Z,1.58
2023-02-03T08:42:17.787Z,1.75
2023-02-03T08:44:44.379Z,1.83
2023-02-03T08:47:11.196Z,2.92
2023-02-03T08:49:39.435Z,1.90
2023-02-03T08:52:07.285Z,2.00
2023-02-03T08:54:33.974Z,1.52
2023-02-03T08:57:00.299Z,1.63
2023-02-03T08:59:26.663Z,1.83
2023-02-03T09:01:53.009Z,1.90
2023-02-03T09:04:24.553Z,1.65
2023-02-03T09:06:51.472Z,1.67
2023-02-03T09:09:18.059Z,1.30
2023-02-03T09:11:44.411Z,2.55
2023-02-03T09:14:10.724Z,2.05
2023-02-03T09:16:37.347Z,2.22
2023-02-03T09:19:03.702Z,1.52
2023-02-03T09:21:33.643Z,1.85
2023-02-03T09:24:02.705Z,2.00
2023-02-03T09:26:29.081Z,1.80
2023-02-03T09:28:55.531Z,1.70
2023-02-03T09:31:22.161Z,1.42
2023-02-03T09:33:48.835Z,1.88
2023-02-03T09:36:15.331Z,2.10
2023-02-03T09:38:42.183Z,2.03
2023-02-03T09:41:14.517Z,1.70
2023-02-03T09:44:00.101Z,1.90
2023-02-03T09:46:35.029Z,1.88
2023-02-03T09:49:12.584Z,2.00
2023-02-03T09:51:46.214Z,1.60
2023-02-03T09:54:31.115Z,1.90
2023-02-03T09:57:00.229Z,1.70
2023-02-03T09:59:27.571Z,2.00
2023-02-03T10:01:54.077Z,1.50
2023-02-03T10:04:37.928Z,1.30
2023-02-03T10:07:15.605Z,1.98
2023-02-03T10:09:49.674Z,1.70
2023-02-03T10:12:20.360Z,1.73
2023-02-03T10:14:46.712Z,1.38
2023-02-03T10:17:31.208Z,1.40
2023-02-03T10:20:00.583Z,1.58
2023-02-03T10:22:28.751Z,1.30
2023-02-03T10:24:59.100Z,1.55
2023-02-03T10:27:25.902Z,1.83
2023-02-03T10:29:56.824Z,1.77
2023-02-03T10:32:24.572Z,1.75
2023-02-03T10:34:51.037Z,1.30
2023-02-03T10:37:23.934Z,2.35
2023-02-03T10:39:51.468Z,1.52
2023-02-03T10:42:18.462Z,1.55
2023-02-03T10:44:58.404Z,1.50
2023-02-03T10:47:27.191Z,2.00
2023-02-03T10:49:55.079Z,1.92
2023-02-03T10:52:35.297Z,1.75
2023-02-03T10:55:05.847Z,1.60
2023-02-03T10:57:35.426Z,2.25
2023-02-03T11:00:23.680Z,1.70
2023-02-03T11:03:04.162Z,1.75
2023-02-03T11:05:30.499Z,1.75
2023-02-03T11:07:57.239Z,1.45
2023-02-03T11:10:29.894Z,1.88
2023-02-03T11:13:08.531Z,1.80
2023-02-03T11:15:34.915Z,2.10
2023-02-03T11:18:02.718Z,1.98
2023-02-03T11:20:29.680Z,2.30
2023-02-03T11:22:56.446Z,1.73
2023-02-03T11:25:32.357Z,2.00
2023-02-03T11:28:03.483Z,1.70
2023-02-03T11:30:30.302Z,2.20
2023-02-03T11:32:57.170Z,1.65
2023-02-03T11:35:27.861Z,1.40
2023-02-03T11:37:55.610Z,2.03
2023-02-03T11:40:21.914Z,1.30
2023-02-03T11:42:51.240Z,2.20
2023-02-03T11:45:17.577Z,1.85
2023-02-03T11:47:55.717Z,1.70
2023-02-03T11:50:27.960Z,2.22
2023-02-03T11:53:12.797Z,2.17
2023-02-03T11:55:39.300Z,2.10
2023-02-03T11:58:18.202Z,2.50
2023-02-03T12:01:13.957Z,1.92
2023-02-03T12:03:49.467Z,2.05
2023-02-03T12:06:15.867Z,2.00
2023-02-03T12:08:45.343Z,1.73
2023-02-03T12:11:27.052Z,2.15
2023-02-03T12:13:53.419Z,1.80
2023-02-03T12:16:20.095Z,1.90
2023-02-03T12:18:56.260Z,2.35
2023-02-03T12:21:32.902Z,2.30
2023-02-03T12:24:05.300Z,2.00
2023-02-03T12:26:39.050Z,1.73
2023-02-03T12:29:14.556Z,1.90
2023-02-03T12:31:54.338Z,2.47
2023-02-03T12:34:20.679Z,2.35
2023-02-03T12:37:04.743Z,1.70
2023-02-03T12:39:49.795Z,2.05
2023-02-03T12:42:16.638Z,1.77
2023-02-03T12:44:52.711Z,2.40
2023-02-03T12:47:22.725Z,2.35
2023-02-03T12:49:54.945Z,2.40
2023-02-03T12:52:24.851Z,2.67
2023-02-03T12:55:03.484Z,2.83
2023-02-03T12:57:42.952Z,3.35
2023-02-03T13:00:20.521Z,2.67
2023-02-03T13:02:59.620Z,2.80
2023-02-03T13:05:38.965Z,2.75
2023-02-03T13:08:25.533Z,3.03
2023-02-03T13:10:55.240Z,2.70
2023-02-03T13:13:26.406Z,2.50
2023-02-03T13:15:54.275Z,2.97
2023-02-03T13:18:29.618Z,2.80
2023-02-03T13:20:56.521Z,2.85
2023-02-03T13:23:23.712Z,2.95
2023-02-03T13:25:50.023Z,2.78
2023-02-03T13:28:19.995Z,2.78
2023-02-03T13:30:52.613Z,2.75
2023-02-03T13:33:31.119Z,2.55
2023-02-03T13:36:00.558Z,2.80
2023-02-03T13:38:39.320Z,3.17
2023-02-03T13:41:22.339Z,2.85
2023-02-03T13:43:50.342Z,3.10
2023-02-03T13:46:22.331Z,2.60
2023-02-03T13:48:48.978Z,2.53
2023-02-03T13:51:17.497Z,2.85
2023-02-03T13:53:44.935Z,3.20
2023-02-03T13:56:17.452Z,2.85
2023-02-03T13:58:58.192Z,3.03
2023-02-03T14:01:37.134Z,2.75
2023-02-03T14:04:05.148Z,3.60
2023-02-03T14:06:40.536Z,2.65
2023-02-03T14:09:25.644Z,3.35
2023-02-03T14:11:52.579Z,3.03
2023-02-03T14:14:21.788Z,3.30
2023-02-03T14:16:49.324Z,3.08
2023-02-03T14:19:21.476Z,3.08
2023-02-03T14:21:47.783Z,3.42
2023-02-03T14:24:14.344Z,3.13
2023-02-03T14:26:42.394Z,3.72
2023-02-03T14:29:10.105Z,3.75
2023-02-03T14:31:53.226Z,3.67
2023-02-03T14:34:27.702Z,3.10
2023-02-03T14:36:55.299Z,3.20
2023-02-03T14:39:26.843Z,3.28
2023-02-03T14:42:02.284Z,3.20
2023-02-03T14:45:07.242Z,3.40
2023-02-03T14:47:49.912Z,3.90
2023-02-03T14:50:40.807Z,3.33
2023-02-03T14:53:15.911Z,2.72
2023-02-03T14:56:00.761Z,3.85
2023-02-03T14:58:31.845Z,3.72
2023-02-03T15:01:00.339Z,4.20
2023-02-03T15:03:30.074Z,3.28
2023-02-03T15:06:01.551Z,3.63
2023-02-03T15:08:36.216Z,3.05
2023-02-03T15:11:34.911Z,3.30
2023-02-03T15:14:15.861Z,2.65
2023-02-03T15:16:44.138Z,2.70
2023-02-03T15:19:16.021Z,3.03
2023-02-03T15:21:42.515Z,2.88
2023-02-03T15:24:18.512Z,3.25
2023-02-03T15:26:45.982Z,3.00
2023-02-03T15:29:19.282Z,3.55
2023-02-03T15:31:49.919Z,3.65
2023-02-03T15:34:31.297Z,3.55
2023-02-03T15:37:00.417Z,3.08
2023-02-03T15:39:40.355Z,3.30
2023-02-03T15:42:09.255Z,4.50
2023-02-03T15:44:40.722Z,2.70
2023-02-03T15:47:16.488Z,2.72
2023-02-03T15:49:43.437Z,2.55
2023-02-03T15:52:09.719Z,2.45
2023-02-03T15:54:43.015Z,2.95
2023-02-03T15:57:11.567Z,3.22
2023-02-03T15:59:40.003Z,3.33
2023-02-03T16:02:20.993Z,2.90
2023-02-03T16:04:47.905Z,3.17
2023-02-03T16:07:17.124Z,3.17
2023-02-03T16:09:43.683Z,3.08
2023-02-03T16:12:23.385Z,2.70
2023-02-03T16:14:50.339Z,2.80
2023-02-03T16:17:27.843Z,4.72
2023-02-03T16:20:12.473Z,3.20
2023-02-03T16:22:43.331Z,3.10
2023-02-03T16:27:35.946Z,2.60
2023-02-03T16:30:24.166Z,3.08
2023-02-03T16:33:27.471Z,2.88
2023-02-03T16:36:15.806Z,3.65
2023-02-03T16:39:07.541Z,2.72
2023-02-03T16:41:52.600Z,2.83
2023-02-03T16:44:37.558Z,3.63
2023-02-03T16:47:22.800Z,3.83
2023-02-03T16:50:07.668Z,4.03
2023-02-03T16:52:34.026Z,4.10
2023-02-03T16:55:00.390Z,3.50
2023-02-03T16:57:26.907Z,3.38
2023-02-03T16:59:53.274Z,3.95
2023-02-03T17:02:19.680Z,4.32
2023-02-03T17:04:46.007Z,3.65
2023-02-03T17:07:12.380Z,3.10
2023-02-03T17:09:38.800Z,3.25
2023-02-03T17:12:05.317Z,3.22
2023-02-03T17:14:31.711Z,3.60
2023-02-03T17:16:58.593Z,4.10
2023-02-03T17:19:25.002Z,3.88
2023-02-03T17:21:51.586Z,3.47
2023-02-03T17:24:17.938Z,3.80
2023-02-03T17:26:44.210Z,3.00
2023-02-03T17:29:10.624Z,2.90
2023-02-03T17:31:37.016Z,3.70
2023-02-03T17:34:03.399Z,3.22
2023-02-03T17:36:29.722Z,3.35
2023-02-03T17:55:44.926Z,3.22
2023-02-03T17:58:11.333Z,3.97
2023-02-03T18:00:37.628Z,4.43
2023-02-03T18:03:04.040Z,3.63
2023-02-03T18:05:30.455Z,3.30
2023-02-03T18:07:56.784Z,3.85
2023-02-03T18:10:23.193Z,3.03
2023-02-03T18:12:49.539Z,3.45
2023-02-03T18:15:15.910Z,4.28
2023-02-03T18:17:53.056Z,3.70
2023-02-03T18:20:19.449Z,3.13
2023-02-03T18:22:45.931Z,3.65
2023-02-03T18:25:12.656Z,3.92
2023-02-03T18:27:38.974Z,3.30
2023-02-03T18:30:05.767Z,3.38
2023-02-03T18:32:34.453Z,4.78
2023-02-03T18:35:01.937Z,4.28
2023-02-03T18:37:28.508Z,3.92
2023-02-03T18:39:54.952Z,3.70
2023-02-03T18:42:21.466Z,3.38
2023-02-03T18:44:47.880Z,4.10
2023-02-03T18:47:17.236Z,4.80
2023-02-03T18:49:43.876Z,6.65
2023-02-03T18:52:12.844Z,4.97
2023-02-03T18:54:39.243Z,4.82
2023-02-03T18:57:05.962Z,4.20
2023-02-03T18:59:33.575Z,4.40
2023-02-03T19:02:00.131Z,4.38
2023-02-03T19:04:28.933Z,3.17
2023-02-03T19:06:55.678Z,3.75
2023-02-03T19:09:23.741Z,3.55
2023-02-03T19:11:56.402Z,4.00
2023-02-03T19:14:24.793Z,3.60
2023-02-03T19:16:53.181Z,3.88
2023-02-03T19:19:20.151Z,3.55
2023-02-03T19:21:48.774Z,4.05
2023-02-03T19:24:18.826Z,3.33
2023-02-03T19:26:45.463Z,4.40
2023-02-03T19:29:11.877Z,3.92
2023-02-03T19:31:41.174Z,4.43
2023-02-03T19:34:07.620Z,3.45
2023-02-03T19:36:34.141Z,3.42
2023-02-03T19:39:00.612Z,2.95
2023-02-03T19:41:29.216Z,3.83
2023-02-03T19:43:59.519Z,4.30
2023-02-03T19:46:27.432Z,3.25
2023-02-03T19:48:56.231Z,3.78
2023-02-03T19:51:27.062Z,2.90
2023-02-03T19:56:22.397Z,3.40
2023-02-03T19:58:52.143Z,2.90
2023-02-03T20:01:19.046Z,2.80
2023-02-03T20:03:45.536Z,3.38
2023-02-03T20:06:12.422Z,3.75
2023-02-03T20:08:38.946Z,4.55
2023-02-03T20:11:05.775Z,3.63
2023-02-03T20:13:32.292Z,2.95
2023-02-03T20:15:59.075Z,3.25
2023-02-03T20:18:25.695Z,4.15
2023-02-03T20:20:58.120Z,3.78
2023-02-03T20:23:24.707Z,2.95
2023-02-03T20:25:52.908Z,3.92
2023-02-03T20:28:20.033Z,4.22
2023-02-03T20:30:46.482Z,4.32
2023-02-03T20:33:13.125Z,3.55
2023-02-03T20:35:39.570Z,3.53
2023-02-03T20:38:05.880Z,3.67
2023-02-03T20:40:32.700Z,3.78
2023-02-03T20:43:03.156Z,4.10
2023-02-03T20:45:29.791Z,3.40
2023-02-03T20:47:56.544Z,3.22
2023-02-03T20:50:37.305Z,3.38
2023-02-03T20:53:18.965Z,2.95
2023-02-03T20:55:47.776Z,3.55
2023-02-03T20:58:18.802Z,4.30
2023-02-03T21:00:45.666Z,4.15
2023-02-03T21:03:31.893Z,3.83
2023-02-03T21:05:58.232Z,3.70
2023-02-03T21:08:25.468Z,3.63
2023-02-03T21:10:52.053Z,3.03
2023-02-03T21:13:26.534Z,3.97
2023-02-03T21:15:54.910Z,3.40
2023-02-03T21:18:24.310Z,4.55
2023-02-03T21:20:51.403Z,3.55
2023-02-03T21:23:17.949Z,3.20
2023-02-03T21:25:44.292Z,3.53
2023-02-03T21:28:20.050Z,3.72
2023-02-03T21:30:49.987Z,4.45
2023-02-03T21:33:37.101Z,4.03
2023-02-03T21:36:03.506Z,3.60
2023-02-03T21:38:32.150Z,3.83
2023-02-03T21:40:59.677Z,4.25
2023-02-03T21:43:26.191Z,3.40
2023-02-03T21:45:52.610Z,3.53
2023-02-03T21:48:29.592Z,3.17
2023-02-03T21:51:03.316Z,5.30
2023-02-03T21:53:35.621Z,5.35
2023-02-03T21:56:22.609Z,5.28
2023-02-03T21:58:50.804Z,4.22
2023-02-03T22:01:18.254Z,4.70
2023-02-03T22:03:49.397Z,4.70
2023-02-03T22:06:18.662Z,4.15
2023-02-03T22:08:46.393Z,3.28
2023-02-03T22:11:13.950Z,3.83
2023-02-03T22:13:40.450Z,2.92
2023-02-03T22:16:06.953Z,3.45
2023-02-03T22:18:33.447Z,4.07
2023-02-03T22:20:59.872Z,3.70
2023-02-03T22:23:26.349Z,3.08
2023-02-03T22:25:52.782Z,3.80
2023-02-03T22:28:19.256Z,3.53
2023-02-03T22:30:45.725Z,4.35
2023-02-03T22:33:12.037Z,3.70
2023-02-03T22:35:38.341Z,2.85
2023-02-03T22:38:04.958Z,2.85
2023-02-03T22:40:31.679Z,3.17
2023-02-03T22:42:58.259Z,3.58
2023-02-03T22:45:24.640Z,2.30
2023-02-03T22:47:51.032Z,2.50
2023-02-03T22:50:20.502Z,3.63
2023-02-03T22:52:51.046Z,2.58
2023-02-03T22:55:17.425Z,2.88
2023-02-03T22:57:43.825Z,2.50
2023-02-03T23:00:13.693Z,2.30
2023-02-03T23:02:40.216Z,2.60
2023-02-03T23:05:07.439Z,2.75
2023-02-03T23:07:33.922Z,3.00
2023-02-03T23:10:00.443Z,2.15
2023-02-03T23:12:27.036Z,2.67
2023-02-03T23:14:53.396Z,2.28
2023-02-03T23:17:19.808Z,3.35
2023-02-03T23:19:46.165Z,2.70
2023-02-03T23:22:12.574Z,1.95
2023-02-03T23:24:38.863Z,3.17
2023-02-03T23:27:05.256Z,2.83
2023-02-03T23:29:33.027Z,2.30
2023-02-03T23:31:59.345Z,2.85
2023-02-03T23:34:44.373Z,2.60
2023-02-03T23:37:10.666Z,2.40
2023-02-03T23:39:36.970Z,2.38
2023-02-03T23:42:03.376Z,2.08
2023-02-03T23:44:29.660Z,1.80
2023-02-03T23:46:56.007Z,3.15
2023-02-03T23:49:22.304Z,2.78
2023-02-03T23:51:48.797Z,2.40
2023-02-03T23:54:15.168Z,2.20
2023-02-03T23:56:41.525Z,2.92
2023-02-03T23:59:07.906Z,2.08
